Chester-le-Street, United Kingdom
Current Conditions -  °F | °C
As of 9:50 PM on Monday 24 Nov 2014 (Local Time) from EGNT Reporting Station
Clear Clear  
Wind Chill: 39°   Ceiling: Unl
Heat Index: 39°   Visibility: 6mi
Dew Point: 37°   Wind: 2mph
Humidity: 93%   Direction: NA
Pressure: 30.24"   Gusts: NA
Location:  54.86°N, 1.59°W
Report Text: EGNT 242150Z VRB02KT CAVOK 04/03 Q1024
Loading
Personal Weather Stations






























Interactive Weather Map New forecast layout! Learn more

10-Day Weather Forecast

Advertisements
Track Severe Weather on mobile